Time;durP1;ratioP1;P1;durP2;ratioP2;P2;SDS_P1;SDS_P2;PMS_P1;PMS_P2;Temp;Humidity;BMP_temperature;BMP_pressure;BME280_temperature;BME280_humidity;BME280_pressure;Samples;Min_cycle;Max_cycle;Signal;HPM_P1;HPM_P2
2023/06/22 00:00:27;;;;;;;23.27;19.13;;;17.20;99.90;;;;;;5087978;28;20036;-64
2023/06/22 00:02:52;;;;;;;21.02;17.98;;;17.40;99.90;;;;;;5075065;28;20090;-63
2023/06/22 00:05:18;;;;;;;22.40;18.80;;;17.30;99.90;;;;;;5068189;28;20041;-64
2023/06/22 00:07:44;;;;;;;19.80;16.40;;;17.40;99.90;;;;;;5081082;28;20122;-64
2023/06/22 00:10:09;;;;;;;19.23;17.13;;;17.10;99.90;;;;;;5077623;28;20469;-63
2023/06/22 00:12:35;;;;;;;23.23;17.63;;;17.10;99.90;;;;;;5059191;28;20055;-64
2023/06/22 00:15:00;;;;;;;20.48;17.20;;;17.30;99.90;;;;;;5073189;28;20040;-64
2023/06/22 00:17:26;;;;;;;21.80;16.70;;;17.10;99.90;;;;;;5075882;28;20044;-63
2023/06/22 00:19:53;;;;;;;24.38;19.63;;;17.10;99.90;;;;;;5071883;28;20139;-64
2023/06/22 00:22:27;;;;;;;25.98;19.42;;;17.50;99.90;;;;;;5080742;28;20040;-64
2023/06/22 00:24:54;;;;;;;21.83;19.20;;;17.00;99.90;;;;;;5063414;28;20047;-64
2023/06/22 00:27:20;;;;;;;21.27;17.55;;;16.80;99.90;;;;;;5072268;28;20516;-63
2023/06/22 00:29:46;;;;;;;21.33;17.85;;;17.20;99.90;;;;;;5086153;28;20044;-64
2023/06/22 00:32:11;;;;;;;21.00;17.45;;;17.30;99.90;;;;;;5074341;28;20040;-63
2023/06/22 00:34:37;;;;;;;20.48;16.75;;;17.20;99.90;;;;;;5086512;28;20260;-64
2023/06/22 00:37:03;;;;;;;19.50;16.40;;;17.90;99.90;;;;;;5079851;28;20093;-63
2023/06/22 00:39:28;;;;;;;20.10;16.75;;;16.80;99.90;;;;;;5087765;28;20044;-64
2023/06/22 00:41:54;;;;;;;16.98;14.98;;;17.00;99.90;;;;;;5076716;28;20040;-63
2023/06/22 00:44:20;;;;;;;17.65;14.63;;;16.90;99.90;;;;;;5076398;28;20131;-63
2023/06/22 00:46:46;;;;;;;17.27;14.15;;;17.00;99.90;;;;;;5077765;28;20120;-63
2023/06/22 00:49:11;;;;;;;16.33;14.00;;;16.80;99.90;;;;;;5057231;28;20488;-64
2023/06/22 00:51:38;;;;;;;12.45;11.15;;;16.90;99.90;;;;;;5078880;28;20044;-64
2023/06/22 00:54:05;;;;;;;14.18;11.43;;;17.10;99.90;;;;;;5073110;28;20111;-64
2023/06/22 00:56:32;;;;;;;14.18;10.85;;;16.30;99.90;;;;;;5078407;28;20072;-63
2023/06/22 00:58:59;;;;;;;12.93;9.73;;;16.60;99.90;;;;;;5085201;28;20074;-63
2023/06/22 01:01:25;;;;;;;11.43;9.32;;;16.40;99.90;;;;;;5061717;28;20035;-63
2023/06/22 01:03:51;;;;;;;13.73;11.43;;;16.10;99.90;;;;;;5080601;28;20050;-63
2023/06/22 01:06:26;;;;;;;19.73;12.88;;;17.00;99.90;;;;;;5081681;28;20446;-63
2023/06/22 01:09:02;;;;;;;21.17;13.88;;;16.90;99.90;;;;;;5086128;28;20089;-63
2023/06/22 01:11:45;;;;;;;33.55;15.30;;;16.90;99.90;;;;;;5067990;28;20040;-64
2023/06/22 01:14:29;;;;;;;18.02;13.90;;;17.00;99.90;;;;;;5080660;28;20036;-64
2023/06/22 01:16:56;;;;;;;25.55;12.90;;;17.40;99.90;;;;;;5075535;28;20398;-64
2023/06/22 01:19:25;;;;;;;20.38;13.50;;;16.90;99.90;;;;;;5071482;28;20154;-64
2023/06/22 01:21:53;;;;;;;24.58;14.20;;;17.40;99.90;;;;;;5071949;28;20477;-64
2023/06/22 01:24:28;;;;;;;21.13;16.30;;;16.90;99.90;;;;;;5078321;28;20028;-63
2023/06/22 01:26:59;;;;;;;35.97;16.88;;;17.20;99.90;;;;;;5062259;28;20040;-63
2023/06/22 01:29:26;;;;;;;25.35;16.83;;;16.80;99.90;;;;;;5058691;28;20382;-64
2023/06/22 01:31:55;;;;;;;17.88;15.38;;;17.40;99.90;;;;;;5080347;28;20405;-64
2023/06/22 01:34:23;;;;;;;15.63;14.02;;;17.20;99.90;;;;;;5074707;28;20047;-63
2023/06/22 01:36:50;;;;;;;26.23;16.48;;;17.20;99.90;;;;;;5081962;28;20040;-63
2023/06/22 01:39:16;;;;;;;22.60;16.45;;;17.10;99.90;;;;;;5082129;28;20032;-63
2023/06/22 01:41:43;;;;;;;20.63;17.45;;;17.10;99.90;;;;;;5059848;28;20072;-64
2023/06/22 01:44:09;;;;;;;19.50;17.15;;;17.20;99.90;;;;;;5085459;28;20347;-64
2023/06/22 01:46:36;;;;;;;25.27;20.48;;;17.20;99.90;;;;;;5084438;28;20398;-64
2023/06/22 01:49:03;;;;;;;21.98;18.30;;;17.40;99.90;;;;;;5060749;28;20040;-63
2023/06/22 01:51:30;;;;;;;23.20;19.88;;;17.40;99.90;;;;;;5082085;28;20438;-64
2023/06/22 01:53:55;;;;;;;21.33;18.83;;;17.00;99.90;;;;;;5068198;28;20489;-63
2023/06/22 01:56:21;;;;;;;22.77;19.98;;;16.90;99.90;;;;;;5061903;28;20044;-63
2023/06/22 01:58:59;;;;;;;26.45;22.05;;;17.10;99.90;;;;;;5058086;28;20512;-64
2023/06/22 02:01:30;;;;;;;19.83;17.45;;;16.70;99.90;;;;;;5071340;28;20497;-64
2023/06/22 02:04:12;;;;;;;20.17;17.45;;;17.30;99.90;;;;;;5071876;28;20563;-64
2023/06/22 02:06:41;;;;;;;18.30;16.05;;;17.20;99.90;;;;;;5074962;28;20095;-64
2023/06/22 02:09:15;;;;;;;18.27;16.45;;;18.10;99.90;;;;;;5043051;28;20044;-63
2023/06/22 02:11:44;;;;;;;18.20;16.25;;;17.00;99.90;;;;;;5079961;28;20045;-64
2023/06/22 02:14:10;;;;;;;18.20;16.30;;;17.20;99.90;;;;;;5078308;28;20407;-64
2023/06/22 02:16:37;;;;;;;18.80;16.80;;;16.60;99.90;;;;;;5066959;28;20528;-64
2023/06/22 02:19:03;;;;;;;17.10;15.32;;;17.20;99.90;;;;;;5069580;28;20047;-64
2023/06/22 02:21:30;;;;;;;18.75;16.85;;;17.10;99.90;;;;;;5070070;28;20044;-63
2023/06/22 02:23:56;;;;;;;17.55;15.13;;;17.10;99.90;;;;;;5075281;28;20502;-63
2023/06/22 02:26:23;;;;;;;32.72;17.67;;;17.20;99.90;;;;;;5087824;28;20039;-63
2023/06/22 02:28:49;;;;;;;20.23;15.68;;;17.10;99.90;;;;;;5081646;28;20473;-63
2023/06/22 02:31:14;;;;;;;20.70;16.25;;;17.30;99.90;;;;;;5057602;28;20131;-64
2023/06/22 02:33:40;;;;;;;37.65;16.90;;;16.90;99.90;;;;;;5047677;28;20118;-63
2023/06/22 02:36:08;;;;;;;18.60;16.80;;;17.20;99.90;;;;;;5083280;28;20345;-63
2023/06/22 02:38:36;;;;;;;26.95;16.88;;;16.90;99.90;;;;;;5064075;28;20401;-63
2023/06/22 02:41:02;;;;;;;31.10;15.80;;;17.00;99.90;;;;;;5078599;28;20032;-63
2023/06/22 02:43:28;;;;;;;18.50;14.73;;;17.20;99.90;;;;;;5063222;28;20509;-63
2023/06/22 02:45:54;;;;;;;27.52;14.85;;;17.40;99.90;;;;;;5083498;28;20043;-63
2023/06/22 02:48:19;;;;;;;18.55;15.93;;;16.40;99.90;;;;;;5069634;28;20036;-63
2023/06/22 02:50:45;;;;;;;23.45;16.30;;;17.30;99.90;;;;;;5073296;28;20044;-63
2023/06/22 02:53:11;;;;;;;16.92;15.20;;;17.10;99.90;;;;;;5078592;28;20551;-63
2023/06/22 02:55:36;;;;;;;19.90;15.70;;;17.20;99.90;;;;;;5082700;28;20098;-63
2023/06/22 02:58:04;;;;;;;20.73;15.90;;;17.80;99.90;;;;;;5079994;28;20086;-63
2023/06/22 03:00:31;;;;;;;21.88;15.27;;;17.10;99.90;;;;;;5052622;28;20178;-63
2023/06/22 03:02:57;;;;;;;26.02;14.60;;;17.00;99.90;;;;;;5078054;28;20122;-63
2023/06/22 03:05:23;;;;;;;16.65;14.95;;;17.50;99.90;;;;;;5065049;28;20387;-64
2023/06/22 03:07:49;;;;;;;16.98;15.18;;;16.30;99.90;;;;;;5072691;28;20085;-63
2023/06/22 03:10:16;;;;;;;18.67;13.95;;;16.90;99.90;;;;;;5079912;28;20516;-63
2023/06/22 03:12:42;;;;;;;17.45;14.25;;;16.80;99.90;;;;;;5058894;28;20548;-63
2023/06/22 03:15:10;;;;;;;17.33;15.63;;;16.90;99.90;;;;;;5085262;28;20040;-64
2023/06/22 03:17:41;;;;;;;15.90;14.23;;;16.60;99.90;;;;;;5059984;28;20087;-63
2023/06/22 03:20:14;;;;;;;19.05;14.80;;;17.10;99.90;;;;;;5063067;28;20404;-63
2023/06/22 03:22:41;;;;;;;16.02;14.32;;;17.10;99.90;;;;;;5077699;28;20048;-64
2023/06/22 03:25:10;;;;;;;20.35;14.68;;;15.90;99.90;;;;;;5059107;28;20044;-64
2023/06/22 03:27:37;;;;;;;18.00;16.13;;;16.40;99.90;;;;;;5058438;28;20035;-63
2023/06/22 03:30:03;;;;;;;17.35;15.52;;;16.20;99.90;;;;;;5089855;28;20032;-64
2023/06/22 03:32:29;;;;;;;17.25;15.65;;;16.50;99.90;;;;;;5083376;28;20521;-64
2023/06/22 03:34:58;;;;;;;15.23;13.15;;;16.50;99.90;;;;;;5080548;28;20042;-64
2023/06/22 03:37:25;;;;;;;38.22;16.40;;;16.70;99.90;;;;;;5079299;28;20031;-64
2023/06/22 03:39:51;;;;;;;18.55;16.63;;;16.70;99.90;;;;;;5060297;28;20044;-64
2023/06/22 03:42:17;;;;;;;24.65;17.23;;;17.00;99.90;;;;;;5076883;28;20066;-64
2023/06/22 03:44:43;;;;;;;16.65;15.00;;;16.50;99.90;;;;;;5080454;28;20036;-64
2023/06/22 03:47:09;;;;;;;17.85;16.08;;;16.80;99.90;;;;;;5078828;28;20028;-64
2023/06/22 03:49:35;;;;;;;17.92;16.15;;;16.30;99.90;;;;;;5058682;28;20044;-64
2023/06/22 03:52:02;;;;;;;18.88;17.00;;;16.50;99.90;;;;;;5053945;28;20049;-64
2023/06/22 03:54:29;;;;;;;18.63;16.92;;;16.50;99.90;;;;;;5063902;28;20054;-63
2023/06/22 03:56:56;;;;;;;18.77;17.00;;;16.50;99.90;;;;;;5085042;28;20052;-64
2023/06/22 03:59:21;;;;;;;17.58;15.98;;;16.70;99.90;;;;;;5087802;28;20491;-64
2023/06/22 04:01:47;;;;;;;19.52;17.63;;;15.70;99.90;;;;;;5072309;28;20114;-63
2023/06/22 04:04:13;;;;;;;17.73;16.00;;;16.10;99.90;;;;;;5077741;28;20048;-64
2023/06/22 04:06:39;;;;;;;17.73;16.13;;;16.00;99.90;;;;;;5072440;28;20048;-63
2023/06/22 04:09:06;;;;;;;17.65;15.95;;;15.90;99.90;;;;;;5079582;28;20126;-63
2023/06/22 04:11:32;;;;;;;15.63;13.98;;;16.60;99.90;;;;;;5048619;28;20033;-63
2023/06/22 04:13:58;;;;;;;16.60;14.90;;;16.60;99.90;;;;;;5077942;28;20116;-64
2023/06/22 04:16:23;;;;;;;17.50;15.70;;;16.10;99.90;;;;;;5085349;28;20032;-64
2023/06/22 04:18:49;;;;;;;19.02;17.02;;;16.70;99.90;;;;;;5070972;28;20052;-64
2023/06/22 04:21:15;;;;;;;16.25;14.40;;;16.50;99.90;;;;;;5083138;28;20115;-64
2023/06/22 04:23:40;;;;;;;18.20;16.45;;;16.50;99.90;;;;;;5076610;28;20029;-64
2023/06/22 04:26:06;;;;;;;20.38;16.30;;;16.80;99.90;;;;;;5062219;28;20055;-64
2023/06/22 04:28:34;;;;;;;17.70;15.93;;;15.90;99.90;;;;;;5068771;28;20397;-64
2023/06/22 04:31:02;;;;;;;17.77;16.08;;;15.80;99.90;;;;;;5081192;28;20382;-64
2023/06/22 04:33:31;;;;;;;19.05;17.15;;;17.40;99.90;;;;;;5083355;28;20116;-64
2023/06/22 04:35:57;;;;;;;20.63;18.42;;;16.90;99.90;;;;;;5065398;28;20040;-64
2023/06/22 04:38:23;;;;;;;20.17;18.17;;;16.70;99.90;;;;;;5058644;28;20128;-64
2023/06/22 04:40:50;;;;;;;21.50;19.40;;;16.90;99.90;;;;;;5071278;28;20111;-64
2023/06/22 04:43:16;;;;;;;21.67;19.48;;;16.80;99.90;;;;;;5079950;28;20040;-64
2023/06/22 04:45:42;;;;;;;27.45;22.83;;;16.80;99.90;;;;;;5081252;28;20032;-64
2023/06/22 04:48:09;;;;;;;29.70;21.33;;;16.20;99.90;;;;;;5077967;28;20443;-65
2023/06/22 04:50:38;;;;;;;23.55;19.25;;;17.40;99.90;;;;;;5064733;28;20126;-65
2023/06/22 04:53:05;;;;;;;23.75;20.13;;;16.80;99.90;;;;;;5072162;28;20109;-65
2023/06/22 04:55:32;;;;;;;22.65;20.15;;;16.80;99.90;;;;;;5051373;28;20040;-65
2023/06/22 04:58:04;;;;;;;23.65;20.65;;;17.10;99.90;;;;;;5073359;28;20159;-65
2023/06/22 05:00:30;;;;;;;24.10;21.40;;;17.20;99.90;;;;;;5063330;28;20621;-65
2023/06/22 05:02:57;;;;;;;22.52;20.13;;;16.50;99.90;;;;;;5057809;28;20037;-65
2023/06/22 05:05:24;;;;;;;21.33;19.02;;;17.10;99.90;;;;;;5066662;28;20048;-64
2023/06/22 05:07:52;;;;;;;23.58;20.95;;;16.80;99.90;;;;;;5054959;28;20055;-65
2023/06/22 05:10:19;;;;;;;21.63;19.38;;;17.10;99.90;;;;;;5068314;28;20047;-65
2023/06/22 05:12:46;;;;;;;26.23;20.65;;;17.00;99.90;;;;;;5069735;28;20033;-65
2023/06/22 05:15:12;;;;;;;21.00;18.33;;;16.70;99.90;;;;;;5068432;28;20032;-65
2023/06/22 05:17:42;;;;;;;27.55;21.45;;;16.60;99.90;;;;;;5071006;28;20047;-64
2023/06/22 05:20:12;;;;;;;25.50;22.75;;;16.60;99.90;;;;;;5058023;28;20118;-65
2023/06/22 05:22:39;;;;;;;23.83;21.15;;;16.60;99.90;;;;;;5049537;28;20044;-64
2023/06/22 05:25:08;;;;;;;25.20;22.23;;;16.90;99.90;;;;;;5069595;28;20111;-64
2023/06/22 05:27:33;;;;;;;22.00;19.60;;;16.40;99.90;;;;;;5075889;28;20115;-64
2023/06/22 05:29:59;;;;;;;23.75;21.20;;;16.70;99.90;;;;;;5067746;28;20115;-64
2023/06/22 05:32:25;;;;;;;26.45;22.75;;;17.30;99.90;;;;;;5070771;28;20036;-64
2023/06/22 05:34:50;;;;;;;25.15;21.17;;;17.10;99.90;;;;;;5072940;28;20421;-64
2023/06/22 05:37:16;;;;;;;30.83;25.98;;;17.00;99.90;;;;;;5082045;28;20146;-64
2023/06/22 05:39:42;;;;;;;32.38;25.33;;;17.10;99.90;;;;;;5074575;28;20044;-64
2023/06/22 05:42:08;;;;;;;29.48;24.65;;;17.20;99.90;;;;;;5078072;28;20073;-64
2023/06/22 05:44:34;;;;;;;30.20;24.65;;;16.90;99.90;;;;;;5071829;28;20393;-64
2023/06/22 05:46:59;;;;;;;32.22;26.70;;;17.10;99.90;;;;;;5058333;28;20046;-64
2023/06/22 05:49:29;;;;;;;26.63;21.45;;;17.80;99.90;;;;;;5071392;28;20043;-64
2023/06/22 05:51:56;;;;;;;32.00;25.27;;;17.20;99.90;;;;;;5081897;28;20089;-64
2023/06/22 05:54:22;;;;;;;32.13;25.52;;;17.60;99.90;;;;;;5083451;28;20032;-64
2023/06/22 05:56:47;;;;;;;28.75;23.27;;;17.50;99.90;;;;;;5076889;28;20032;-64
2023/06/22 05:59:13;;;;;;;31.73;25.73;;;18.20;99.90;;;;;;5077939;28;20081;-64
2023/06/22 06:01:40;;;;;;;33.00;25.70;;;17.20;99.90;;;;;;5074667;28;20059;-64
2023/06/22 06:04:07;;;;;;;30.42;23.27;;;18.20;99.90;;;;;;5063083;28;20047;-64
2023/06/22 06:06:36;;;;;;;26.55;22.17;;;17.50;99.90;;;;;;5049413;28;20694;-64
2023/06/22 06:09:04;;;;;;;28.20;24.00;;;17.60;99.90;;;;;;5077665;28;20028;-64
2023/06/22 06:11:29;;;;;;;26.27;22.02;;;18.50;1.00;;;;;;5071470;28;20354;-64
2023/06/22 06:13:55;;;;;;;21.67;17.83;;;17.50;1.00;;;;;;5064067;28;20028;-64
2023/06/22 06:16:22;;;;;;;26.92;23.05;;;17.60;1.00;;;;;;5080963;28;20100;-64
2023/06/22 06:18:49;;;;;;;25.63;21.60;;;17.50;1.00;;;;;;5082366;28;20032;-64
2023/06/22 06:21:15;;;;;;;29.55;24.38;;;17.70;1.00;;;;;;5059980;28;20401;-64
2023/06/22 06:23:42;;;;;;;26.25;22.33;;;17.70;99.90;;;;;;5056218;28;20033;-64
2023/06/22 06:26:07;;;;;;;27.92;24.92;;;17.80;99.90;;;;;;5082865;28;20036;-64
2023/06/22 06:28:33;;;;;;;26.25;21.13;;;17.80;99.90;;;;;;5079202;28;20043;-64
2023/06/22 06:30:59;;;;;;;27.48;23.35;;;17.70;99.90;;;;;;5069214;28;20074;-64
2023/06/22 06:33:25;;;;;;;32.45;26.15;;;17.60;99.90;;;;;;5073582;28;20086;-64
2023/06/22 06:35:50;;;;;;;25.90;21.45;;;17.80;99.90;;;;;;5058249;28;20555;-64
2023/06/22 06:38:16;;;;;;;29.15;24.55;;;17.70;99.90;;;;;;5074435;28;20618;-64
2023/06/22 06:40:42;;;;;;;29.15;23.75;;;17.80;99.90;;;;;;5061615;28;20028;-64
2023/06/22 06:43:07;;;;;;;29.02;25.58;;;18.10;99.90;;;;;;5080744;28;20116;-64
2023/06/22 06:45:34;;;;;;;29.40;24.33;;;18.00;99.90;;;;;;5083300;28;20044;-64
2023/06/22 06:48:00;;;;;;;27.98;23.60;;;17.80;99.90;;;;;;5051429;28;20111;-64
2023/06/22 06:50:26;;;;;;;21.17;16.73;;;18.40;99.90;;;;;;5082776;28;20553;-64
2023/06/22 06:52:51;;;;;;;28.17;22.17;;;17.90;99.90;;;;;;5085617;28;20036;-64
2023/06/22 06:55:19;;;;;;;27.15;22.77;;;18.90;99.90;;;;;;5063897;28;20113;-64
2023/06/22 06:57:48;;;;;;;22.70;19.77;;;18.90;99.90;;;;;;5061413;28;20390;-64
2023/06/22 07:00:15;;;;;;;23.90;20.67;;;19.40;99.90;;;;;;5070497;28;20386;-64
2023/06/22 07:02:45;;;;;;;21.77;18.05;;;18.80;99.90;;;;;;5081251;28;20379;-64
2023/06/22 07:05:11;;;;;;;25.77;18.85;;;17.80;99.90;;;;;;5080754;28;20090;-64
2023/06/22 07:07:38;;;;;;;27.23;20.15;;;19.10;99.90;;;;;;5057796;28;20413;-64
2023/06/22 07:10:07;;;;;;;27.70;24.75;;;18.70;1.00;;;;;;5078444;28;20401;-64
2023/06/22 07:12:33;;;;;;;24.95;22.15;;;18.90;1.00;;;;;;5082695;28;20048;-64
2023/06/22 07:15:10;;;;;;;23.10;19.35;;;18.10;1.00;;;;;;5086803;28;20337;-64
2023/06/22 07:17:36;;;;;;;22.77;20.38;;;18.90;1.00;;;;;;5085139;28;20327;-64
2023/06/22 07:20:08;;;;;;;22.17;19.70;;;18.40;3.40;;;;;;5085159;28;20039;-64
2023/06/22 07:22:33;;;;;;;23.60;20.20;;;19.00;40.70;;;;;;5074599;28;20045;-64
2023/06/22 07:24:59;;;;;;;18.55;14.52;;;18.90;50.20;;;;;;5079975;28;20194;-64
2023/06/22 07:27:26;;;;;;;20.00;17.85;;;18.60;47.40;;;;;;5079914;28;20064;-64
2023/06/22 07:29:51;;;;;;;21.27;18.77;;;19.10;55.60;;;;;;5079768;28;20040;-64
2023/06/22 07:32:17;;;;;;;21.55;18.48;;;18.30;52.00;;;;;;5084231;28;20119;-64
2023/06/22 07:34:43;;;;;;;19.75;16.35;;;19.00;65.30;;;;;;5081498;28;20032;-64
2023/06/22 07:37:09;;;;;;;20.98;16.50;;;19.00;56.40;;;;;;5085172;28;20111;-64
2023/06/22 07:39:35;;;;;;;20.23;16.42;;;18.80;57.80;;;;;;5071736;28;20128;-64
2023/06/22 07:42:00;;;;;;;19.95;15.48;;;19.40;45.40;;;;;;5077697;28;20066;-64
2023/06/22 07:44:26;;;;;;;19.45;16.25;;;19.20;34.10;;;;;;5073864;28;20039;-64
2023/06/22 07:46:52;;;;;;;19.30;15.20;;;19.50;24.60;;;;;;5076319;28;20039;-64
2023/06/22 07:49:17;;;;;;;15.68;10.90;;;19.60;15.40;;;;;;5054038;28;20082;-64
2023/06/22 07:51:43;;;;;;;15.52;12.95;;;19.30;6.90;;;;;;5075523;28;20028;-64
2023/06/22 07:54:09;;;;;;;18.42;15.35;;;19.50;2.00;;;;;;5075665;28;20379;-64
2023/06/22 07:56:37;;;;;;;19.70;15.95;;;19.40;1.00;;;;;;5078253;28;20505;-64
2023/06/22 07:59:03;;;;;;;17.38;14.18;;;19.40;1.00;;;;;;5072144;28;20064;-64
2023/06/22 08:01:29;;;;;;;20.42;16.13;;;19.40;1.00;;;;;;5062795;28;20052;-64
2023/06/22 08:03:55;;;;;;;23.13;17.65;;;19.80;1.00;;;;;;5087855;28;20527;-64
2023/06/22 08:06:21;;;;;;;19.48;15.38;;;19.60;1.00;;;;;;5083265;28;20036;-64
2023/06/22 08:08:48;;;;;;;18.58;15.63;;;19.70;1.00;;;;;;5080501;28;20032;-64
2023/06/22 08:11:14;;;;;;;17.95;14.95;;;19.80;1.00;;;;;;5051281;28;20040;-64
2023/06/22 08:13:40;;;;;;;16.08;13.68;;;20.60;1.00;;;;;;5074744;28;20047;-64
2023/06/22 08:16:07;;;;;;;18.30;15.32;;;20.40;1.00;;;;;;5083611;28;20032;-64
2023/06/22 08:18:33;;;;;;;18.17;15.25;;;20.60;1.00;;;;;;5074667;28;20047;-64
2023/06/22 08:20:58;;;;;;;18.58;14.60;;;20.30;1.00;;;;;;5083340;28;20036;-64
2023/06/22 08:23:24;;;;;;;18.88;15.35;;;20.10;1.00;;;;;;5081972;28;20032;-64
2023/06/22 08:25:50;;;;;;;17.98;15.90;;;20.50;1.00;;;;;;5071129;28;20040;-64
2023/06/22 08:28:16;;;;;;;16.55;14.20;;;20.30;1.00;;;;;;5073951;28;20033;-64
2023/06/22 08:30:41;;;;;;;16.13;13.32;;;20.30;99.90;;;;;;5079813;28;20576;-64
2023/06/22 08:33:07;;;;;;;18.73;14.10;;;20.20;99.90;;;;;;5064971;28;20497;-64
2023/06/22 08:35:33;;;;;;;15.00;12.15;;;22.70;99.90;;;;;;5061735;28;20111;-64
2023/06/22 08:37:59;;;;;;;15.90;13.02;;;21.30;99.90;;;;;;5071042;28;20036;-64
2023/06/22 08:40:25;;;;;;;14.77;12.65;;;21.70;99.90;;;;;;5070899;28;20037;-64
2023/06/22 08:42:51;;;;;;;15.57;11.60;;;21.30;99.90;;;;;;5061983;28;20075;-64
2023/06/22 08:45:16;;;;;;;14.98;11.52;;;21.20;99.90;;;;;;5069051;28;20043;-64
2023/06/22 08:47:43;;;;;;;15.23;11.57;;;21.40;99.90;;;;;;5074672;28;20043;-64
2023/06/22 08:50:10;;;;;;;13.02;10.20;;;21.90;99.90;;;;;;5059251;28;20092;-64
2023/06/22 08:52:37;;;;;;;16.05;11.15;;;21.80;99.90;;;;;;5078710;28;20040;-64
2023/06/22 08:55:03;;;;;;;12.93;10.10;;;21.80;99.90;;;;;;5076255;28;20032;-64
2023/06/22 08:57:30;;;;;;;14.85;11.02;;;21.10;99.90;;;;;;5082793;28;20043;-64
2023/06/22 08:59:58;;;;;;;15.85;11.23;;;22.00;99.90;;;;;;5072669;28;20115;-64
2023/06/22 09:02:30;;;;;;;12.95;10.40;;;21.20;99.90;;;;;;5085145;28;20040;-64
2023/06/22 09:04:57;;;;;;;12.50;9.93;;;21.80;99.90;;;;;;5048215;28;20036;-64
2023/06/22 09:07:24;;;;;;;14.15;9.63;;;22.10;99.90;;;;;;5052710;28;20589;-64
2023/06/22 09:09:50;;;;;;;13.27;9.73;;;22.20;99.90;;;;;;5080920;28;20036;-64
2023/06/22 09:12:17;;;;;;;15.65;9.80;;;22.10;99.90;;;;;;5085868;28;20040;-64
2023/06/22 09:14:42;;;;;;;12.88;9.98;;;21.30;99.90;;;;;;5073450;28;20444;-64
2023/06/22 09:17:08;;;;;;;13.25;10.73;;;22.00;99.90;;;;;;5061000;28;20040;-64
2023/06/22 09:19:34;;;;;;;12.30;9.77;;;21.70;99.90;;;;;;5086138;28;20120;-64
2023/06/22 09:22:00;;;;;;;10.43;8.07;;;22.20;99.90;;;;;;5082204;28;20077;-64
2023/06/22 09:24:26;;;;;;;10.77;7.60;;;22.20;99.90;;;;;;5078394;28;20032;-65
2023/06/22 09:26:51;;;;;;;11.60;8.38;;;22.40;99.90;;;;;;5062573;28;20032;-65
2023/06/22 09:29:17;;;;;;;11.45;8.57;;;22.20;99.90;;;;;;5078337;28;20497;-65
2023/06/22 09:31:44;;;;;;;12.80;9.90;;;22.40;79.50;;;;;;5083926;28;20044;-65
2023/06/22 09:34:09;;;;;;;12.82;10.13;;;22.40;37.10;;;;;;5077884;28;20123;-66
2023/06/22 09:36:35;;;;;;;12.80;10.07;;;22.50;32.60;;;;;;5052250;28;20131;-65
2023/06/22 09:39:06;;;;;;;11.48;8.65;;;22.50;11.30;;;;;;5079686;28;20036;-65
2023/06/22 09:41:32;;;;;;;13.77;9.48;;;22.80;1.00;;;;;;5060136;28;20037;-65
2023/06/22 09:43:58;;;;;;;11.32;8.93;;;22.90;1.00;;;;;;5045199;28;20115;-65
2023/06/22 09:46:25;;;;;;;16.02;10.32;;;22.70;1.00;;;;;;5066975;28;20043;-65
2023/06/22 09:48:51;;;;;;;13.35;8.90;;;22.70;1.00;;;;;;5051881;28;20052;-65
2023/06/22 09:51:16;;;;;;;12.15;8.88;;;23.00;99.90;;;;;;5048572;28;20418;-65
2023/06/22 09:53:42;;;;;;;12.70;8.65;;;23.10;99.90;;;;;;5070721;28;20032;-66
2023/06/22 09:56:14;;;;;;;12.02;9.02;;;24.20;99.90;;;;;;5075899;28;20063;-65
2023/06/22 09:58:41;;;;;;;11.65;7.55;;;23.60;99.90;;;;;;5046353;28;20043;-65
2023/06/22 10:01:07;;;;;;;12.43;8.88;;;23.30;99.90;;;;;;5070841;28;20040;-64
2023/06/22 10:03:32;;;;;;;14.70;9.80;;;24.40;99.90;;;;;;5069882;28;20037;-65
2023/06/22 10:05:58;;;;;;;11.27;8.27;;;23.90;99.90;;;;;;5062228;28;20060;-64
2023/06/22 10:08:24;;;;;;;12.43;9.00;;;24.30;99.90;;;;;;5052778;28;20114;-64
2023/06/22 10:10:49;;;;;;;11.52;9.30;;;23.70;99.90;;;;;;5070471;28;20044;-65
2023/06/22 10:13:15;;;;;;;14.25;9.10;;;23.90;99.90;;;;;;5069936;28;20115;-64
2023/06/22 10:15:41;;;;;;;11.38;9.15;;;24.20;99.90;;;;;;5052598;28;20032;-65
2023/06/22 10:18:07;;;;;;;13.00;8.43;;;25.20;99.90;;;;;;5052120;28;20048;-65
2023/06/22 10:20:33;;;;;;;11.70;8.32;;;25.40;99.90;;;;;;5051657;28;20394;-65
2023/06/22 10:22:58;;;;;;;12.00;8.70;;;25.30;33.60;;;;;;5048653;28;20045;-65
2023/06/22 10:25:24;;;;;;;10.15;7.43;;;25.10;1.00;;;;;;5069594;28;20564;-65
2023/06/22 10:27:50;;;;;;;9.52;7.10;;;25.70;9.30;;;;;;5070607;28;20489;-65
2023/06/22 10:30:16;;;;;;;12.27;8.75;;;24.80;1.00;;;;;;5070377;28;20101;-65
2023/06/22 10:32:43;;;;;;;12.27;7.60;;;25.00;1.00;;;;;;5062047;28;20123;-65
2023/06/22 10:35:13;;;;;;;10.73;7.25;;;25.30;1.00;;;;;;5051440;28;20048;-65
2023/06/22 10:37:39;;;;;;;11.25;7.80;;;26.00;1.00;;;;;;5068468;28;20037;-65
2023/06/22 10:40:05;;;;;;;9.57;7.78;;;25.70;1.00;;;;;;5061924;28;20033;-65
2023/06/22 10:42:31;;;;;;;10.13;7.32;;;25.80;1.00;;;;;;5069482;28;20045;-65
2023/06/22 10:44:56;;;;;;;11.43;7.97;;;26.10;99.90;;;;;;5070097;28;20040;-65
2023/06/22 10:47:22;;;;;;;10.27;7.35;;;25.90;99.90;;;;;;5070257;28;20036;-64
2023/06/22 10:49:48;;;;;;;9.50;5.95;;;26.00;99.90;;;;;;5054576;28;20044;-64
2023/06/22 10:52:13;;;;;;;10.32;7.50;;;26.00;99.90;;;;;;5070922;28;20040;-65
2023/06/22 10:54:39;;;;;;;9.32;6.03;;;26.20;99.90;;;;;;5070149;28;20421;-65
2023/06/22 10:57:05;;;;;;;10.13;7.43;;;25.60;99.90;;;;;;5070362;28;20060;-64
2023/06/22 10:59:31;;;;;;;9.20;6.15;;;26.20;99.90;;;;;;5060125;28;20044;-66
2023/06/22 11:01:58;;;;;;;11.15;6.10;;;26.20;99.90;;;;;;5056874;28;20066;-65
2023/06/22 11:04:24;;;;;;;9.32;6.93;;;26.20;99.90;;;;;;5065592;28;20505;-65
2023/06/22 11:06:50;;;;;;;9.77;7.32;;;26.50;99.80;;;;;;5050065;28;20051;-66
2023/06/22 11:09:22;;;;;;;9.48;6.70;;;26.30;95.80;;;;;;5061910;28;20124;-66
2023/06/22 11:11:50;;;;;;;8.68;5.93;;;26.60;99.90;;;;;;5046511;28;20051;-66
2023/06/22 11:14:16;;;;;;;13.02;5.60;;;26.60;99.90;;;;;;5061625;28;20036;-66
2023/06/22 11:16:42;;;;;;;8.50;5.60;;;26.60;97.40;;;;;;5052158;28;20425;-66
2023/06/22 11:19:08;;;;;;;8.63;5.07;;;27.00;81.90;;;;;;5058835;28;20136;-66
2023/06/22 11:21:33;;;;;;;8.00;5.00;;;27.30;62.70;;;;;;5069843;28;20138;-65
2023/06/22 11:24:00;;;;;;;8.55;5.40;;;27.40;27.00;;;;;;5066243;28;20083;-66
2023/06/22 11:26:29;;;;;;;8.65;5.40;;;27.50;1.00;;;;;;5069073;28;20032;-65
2023/06/22 11:28:54;;;;;;;8.43;5.35;;;27.50;1.00;;;;;;5078051;28;20032;-66
2023/06/22 11:31:20;;;;;;;9.25;5.30;;;28.50;1.00;;;;;;5073403;28;20040;-65
2023/06/22 11:33:46;;;;;;;7.75;5.20;;;28.30;1.00;;;;;;5073249;28;20041;-65
2023/06/22 11:36:12;;;;;;;8.27;5.43;;;27.80;99.90;;;;;;5045139;28;20037;-65
2023/06/22 11:38:39;;;;;;;8.00;5.18;;;28.10;99.90;;;;;;5065204;28;20090;-65
2023/06/22 11:41:07;;;;;;;7.63;4.57;;;28.20;99.90;;;;;;5073415;28;20037;-65
2023/06/22 11:43:33;;;;;;;8.20;4.97;;;27.80;99.90;;;;;;5069759;28;20068;-66
2023/06/22 11:46:00;;;;;;;8.15;5.80;;;28.20;99.90;;;;;;5051598;28;20032;-65
2023/06/22 11:48:26;;;;;;;7.50;4.03;;;29.20;99.90;;;;;;5074463;28;20078;-65
2023/06/22 11:50:52;;;;;;;6.60;4.30;;;27.90;99.90;;;;;;5055113;28;20040;-66
2023/06/22 11:53:17;;;;;;;7.75;4.47;;;28.30;99.90;;;;;;5062408;28;20082;-65
2023/06/22 11:55:44;;;;;;;8.98;4.78;;;28.30;99.90;;;;;;5068435;28;20040;-65
2023/06/22 11:58:09;;;;;;;8.02;4.40;;;29.00;99.90;;;;;;5043026;28;20040;-65
2023/06/22 12:00:35;;;;;;;8.73;5.30;;;28.40;99.90;;;;;;5065031;28;20036;-67
2023/06/22 12:03:01;;;;;;;6.53;4.45;;;29.10;99.90;;;;;;5055381;28;20500;-66
2023/06/22 12:05:27;;;;;;;7.82;4.30;;;28.10;99.90;;;;;;5054909;28;20048;-65
2023/06/22 12:07:54;;;;;;;6.10;3.63;;;29.40;99.90;;;;;;5072947;28;20047;-65
2023/06/22 12:10:20;;;;;;;6.93;3.80;;;28.40;99.90;;;;;;5054798;28;20076;-66
2023/06/22 12:12:46;;;;;;;5.72;3.67;;;28.40;99.90;;;;;;5074579;28;20044;-66
2023/06/22 12:15:12;;;;;;;6.97;3.88;;;29.50;99.90;;;;;;5077559;28;20094;-66
2023/06/22 12:17:37;;;;;;;8.15;4.50;;;28.40;99.90;;;;;;5064707;28;20032;-65
2023/06/22 12:20:05;;;;;;;6.80;3.45;;;29.90;99.90;;;;;;5072717;28;20478;-66
2023/06/22 12:22:34;;;;;;;5.05;2.33;;;28.60;99.90;;;;;;5067801;28;20122;-65
2023/06/22 12:25:00;;;;;;;6.88;2.78;;;28.60;99.90;;;;;;5046071;28;20036;-66
2023/06/22 12:27:26;;;;;;;5.47;2.67;;;28.80;99.90;;;;;;5054410;28;20040;-65
2023/06/22 12:29:51;;;;;;;6.40;3.15;;;28.90;99.90;;;;;;5072296;28;20033;-65